Love Boat — OT3861 — position and weather

sailwx.info

Track history (hours):
 
Tides and Currents Weather Stations Pressure Air Temp Water Temp Dewpoint Dewpoint Depression Visibility Wind Speed Wind Dir Waves Ship Positions

Love Boat

Last reported at 2014-Sep-02 10:33 UTC. Time now 2014-Sep-03 00:13 UTC.
Position N 47°37' E 007°35'.

Length 110 m; draft 3 m.

Type: Ship. MMSI: 205386190.

Date/timePositionNaut miles runAvg speedWind from/ knotsBaromVisibWave heightAir tempDewpointWater temp
2014-Sep-02 10:33N 47°37' E 007°35'2 1.7
2014-Sep-02 09:33N 47°35' E 007°36'0 0.0
2014-Sep-02 08:33N 47°35' E 007°36'0 0.0
2014-Sep-02 07:33N 47°35' E 007°36'0 0.0
2014-Sep-02 06:33N 47°35' E 007°36'0 0.0
2014-Sep-02 05:33N 47°35' E 007°36'0 0.0
2014-Sep-02 04:33N 47°35' E 007°36'0 0.0
2014-Sep-02 03:34N 47°35' E 007°36'0 0.0
2014-Sep-02 02:34N 47°35' E 007°36'0 0.0
2014-Sep-02 01:34N 47°35' E 007°36'0 0.0
2014-Sep-02 00:34N 47°35' E 007°36'0 0.0
2014-Sep-01 23:33N 47°35' E 007°36'0 0.0
2014-Sep-01 22:34N 47°35' E 007°36'0 0.0
2014-Sep-01 21:34N 47°35' E 007°36'0 0.0
2014-Sep-01 20:33N 47°35' E 007°36'0 0.0
2014-Sep-01 19:33N 47°35' E 007°36'0 0.0
2014-Sep-01 18:33N 47°35' E 007°36'0 0.0
2014-Sep-01 17:33N 47°35' E 007°36'0 0.0
2014-Sep-01 16:33N 47°35' E 007°36'0 0.0
2014-Sep-01 15:33N 47°35' E 007°36'0 0.0
2014-Sep-01 14:33N 47°35' E 007°36'0 0.0
2014-Sep-01 13:34N 47°35' E 007°36'0 0.0
2014-Sep-01 12:34N 47°35' E 007°36'0 0.0
2014-Sep-01 11:34N 47°35' E 007°36'0 0.0
2014-Sep-01 10:34N 47°35' E 007°36'0 0.0
2014-Sep-01 09:34N 47°35' E 007°36'0 0.0
2014-Sep-01 08:34N 47°35' E 007°36'0 0.0
2014-Sep-01 07:33N 47°35' E 007°36'0 0.0
2014-Sep-01 06:33N 47°35' E 007°36'0 0.0
2014-Sep-01 05:33N 47°35' E 007°36'0 0.0
2014-Sep-01 04:33N 47°35' E 007°36'0 0.0
2014-Sep-01 03:33N 47°35' E 007°36'0 0.0
2014-Sep-01 02:33N 47°35' E 007°36'0 0.0
2014-Sep-01 01:33N 47°35' E 007°36'0 0.0
2014-Sep-01 00:33N 47°35' E 007°36'0 0.0
2014-Aug-31 23:33N 47°35' E 007°36'0 0.0
2014-Aug-31 22:34N 47°35' E 007°36'0 0.0
2014-Aug-31 21:33N 47°35' E 007°36'0 0.0
2014-Aug-31 20:34N 47°35' E 007°36'0 0.0
2014-Aug-31 19:34N 47°35' E 007°36'0 0.2
2014-Aug-31 18:33N 47°35' E 007°36'0 0.0
2014-Aug-31 17:33N 47°35' E 007°36'2 1.6
2014-Aug-31 16:33N 47°37' E 007°35'4 3.8
2014-Aug-31 15:33N 47°40' E 007°31'64 3.0
2014-Aug-30 18:14N 48°41' E 007°55'4 5.6
2014-Aug-30 17:33N 48°45' E 007°58'6 6.1
2014-Aug-30 16:30N 48°48' E 008°06'3 3.0
2014-Aug-30 15:34N 48°51' E 008°07'4 3.9
2014-Aug-30 14:32N 48°55' E 008°09'4 3.9
2014-Aug-30 13:34N 48°58' E 008°13'4 4.2
2014-Aug-30 12:33N 49°01' E 008°18'4 4.5
2014-Aug-30 11:34N 49°05' E 008°20'4 4.1
2014-Aug-30 10:34N 49°09' E 008°22'4 4.3
2014-Aug-30 09:34N 49°13' E 008°23'4 4.3
2014-Aug-30 08:34N 49°16' E 008°27'3 3.1
2014-Aug-30 07:34N 49°20' E 008°27'6 4.8
2014-Aug-30 06:24N 49°25' E 008°30'106 3.8
2014-Aug-29 02:05N 50°54' E 006°59'16 3.5
2014-Aug-28 21:33N 51°09' E 006°49'3 3.5
2014-Aug-28 20:34N 51°11' E 006°45'3 2.5
2014-Aug-28 19:33N 51°13' E 006°46'4 4.0
2014-Aug-28 18:34N 51°17' E 006°42'36 3.5
2014-Aug-28 08:07N 51°49' E 006°16'20 4.2
2014-Aug-28 03:21N 51°53' E 005°44'5 5.9
2014-Aug-28 02:34N 51°54' E 005°37'6 6.0
2014-Aug-28 01:33N 51°53' E 005°27'6 6.0
2014-Aug-28 00:34N 51°48' E 005°22'5 4.9
2014-Aug-27 23:34N 51°49' E 005°14'6 5.6
2014-Aug-27 22:34N 51°50' E 005°05'6 6.3
2014-Aug-27 21:33N 51°50' E 004°55'7 6.5
2014-Aug-27 20:34N 51°47' E 004°45'7 7.0
2014-Aug-27 19:32N 51°42' E 004°36'12 5.8
2014-Aug-27 17:31N 51°39' E 004°18'6 6.0
2014-Aug-27 16:33N 51°34' E 004°14'7 6.9
2014-Aug-27 15:33N 51°27' E 004°14'0 0.5
2014-Aug-27 14:33N 51°26' E 004°14'7 6.0
2014-Aug-27 13:27N 51°20' E 004°18'7 7.3
2014-Aug-27 12:34N 51°15' E 004°23'1 0.6
2014-Aug-27 11:34N 51°15' E 004°24'0 0.0
2014-Aug-27 10:34N 51°15' E 004°24'0 0.0
2014-Aug-27 09:34N 51°15' E 004°24'0 0.0
2014-Aug-27 08:34N 51°15' E 004°24'0 0.0
2014-Aug-27 07:34N 51°15' E 004°24'0 0.0
2014-Aug-27 06:33N 51°15' E 004°24'0 0.0
2014-Aug-27 05:34N 51°15' E 004°24'0 0.0
2014-Aug-27 04:34N 51°15' E 004°24'0 0.0
2014-Aug-27 03:34N 51°15' E 004°24'0 0.0
2014-Aug-27 02:34N 51°15' E 004°24'0 0.0
2014-Aug-27 01:34N 51°15' E 004°24'0 0.5
2014-Aug-27 00:33N 51°15' E 004°24'0 0.4
2014-Aug-26 23:34N 51°15' E 004°24'0 0.0
2014-Aug-26 22:34N 51°15' E 004°24'0 0.0
2014-Aug-26 21:34N 51°15' E 004°24'0 0.0
2014-Aug-26 20:34N 51°15' E 004°24'0 0.0
2014-Aug-26 19:34N 51°15' E 004°24'0 0.0
2014-Aug-26 18:34N 51°15' E 004°24'0 0.0
2014-Aug-26 17:34N 51°15' E 004°24'0 0.0
2014-Aug-26 16:34N 51°15' E 004°24'1 1.1
2014-Aug-26 15:34N 51°14' E 004°24'3 2.8
2014-Aug-26 14:34N 51°15' E 004°20'7 7.0
2014-Aug-26 13:32N 51°21' E 004°14'7 7.5
2014-Aug-26 12:33N 51°24' E 004°03'7 6.9
2014-Aug-26 11:32N 51°21' E 003°53'3 2.8
2014-Aug-26 10:32N 51°20' E 003°49'8 7.5
2014-Aug-26 09:31N 51°12' E 003°48'4 3.8
2014-Aug-26 08:34N 51°09' E 003°48'0 0.0
2014-Aug-26 07:33N 51°09' E 003°48'0 0.0
2014-Aug-26 06:33N 51°09' E 003°48'0 0.0
2014-Aug-26 05:34N 51°09' E 003°48'0 0.0
2014-Aug-26 04:33N 51°09' E 003°48'0 0.1
2014-Aug-26 03:31N 51°09' E 003°48'0 0.0
2014-Aug-26 02:33N 51°09' E 003°48'0 0.0
2014-Aug-26 01:33N 51°09' E 003°48'0 0.0
2014-Aug-26 00:33N 51°09' E 003°48'0 0.0
2014-Aug-25 23:33N 51°09' E 003°48'0 0.0
2014-Aug-25 22:33N 51°09' E 003°48'0 0.0
2014-Aug-25 21:33N 51°09' E 003°48'0 0.0
2014-Aug-25 20:33N 51°09' E 003°48'0 0.1
2014-Aug-25 19:33N 51°09' E 003°48'0 0.0
2014-Aug-25 18:33N 51°09' E 003°48'0 0.0
2014-Aug-25 17:33N 51°09' E 003°48'0 0.0
2014-Aug-25 16:30N 51°09' E 003°48'0 0.0
2014-Aug-25 15:33N 51°09' E 003°48'0 0.0
2014-Aug-25 14:33N 51°09' E 003°48'0 0.0
2014-Aug-25 13:32N 51°09' E 003°48'0 0.0
2014-Aug-25 12:33N 51°09' E 003°48'0 0.0
2014-Aug-25 11:33N 51°09' E 003°48'0 0.0
2014-Aug-25 10:33N 51°09' E 003°48'0 0.0
2014-Aug-25 09:32N 51°09' E 003°48'0 0.0
2014-Aug-25 08:32N 51°09' E 003°48'0 0.0
2014-Aug-25 07:33N 51°09' E 003°48'0 0.0
2014-Aug-25 06:33N 51°09' E 003°48'0 0.4
2014-Aug-25 05:33N 51°09' E 003°47'0 0.0
2014-Aug-25 04:33N 51°09' E 003°47'0 0.0
2014-Aug-25 03:34N 51°09' E 003°47'0 0.0
2014-Aug-25 02:33N 51°09' E 003°47'0 0.0
2014-Aug-25 01:34N 51°09' E 003°47'0 0.0
2014-Aug-25 00:33N 51°09' E 003°47'0 0.0
2014-Aug-24 23:33N 51°09' E 003°47'0 0.0
2014-Aug-24 22:33N 51°09' E 003°47'0 0.0
2014-Aug-24 21:32N 51°09' E 003°47'0 0.0
2014-Aug-24 20:33N 51°09' E 003°47'1 0.8
2014-Aug-24 19:33N 51°10' E 003°47'6 5.6
2014-Aug-24 18:28N 51°15' E 003°50'5 5.1
2014-Aug-24 17:33N 51°20' E 003°49'5 4.5
2014-Aug-24 16:32N 51°22' E 003°55'6 6.1
2014-Aug-24 15:33N 51°27' E 004°01'6 5.7
2014-Aug-24 14:33N 51°33' E 003°59'9 4.4
2014-Aug-24 12:23N 51°40' E 004°10'10 4.8
2014-Aug-24 10:25N 51°41' E 004°25'5 6.3
2014-Aug-24 09:33N 51°42' E 004°33'6 6.1
2014-Aug-24 08:33N 51°44' E 004°43'6 5.8
2014-Aug-24 07:33N 51°48' E 004°50'6 6.4
2014-Aug-24 06:33N 51°49' E 005°00'7 7.0
2014-Aug-24 05:34N 51°49' E 005°11'7 6.8
2014-Aug-24 04:33N 51°49' E 005°22'7 7.1
2014-Aug-24 03:33N 51°53' E 005°31'11 7.6
2014-Aug-24 02:07N 51°52' E 005°49'  
Track history (hours):
 
Tides and Currents Weather Stations Pressure Air Temp Water Temp Dewpoint Dewpoint Depression Visibility Wind Speed Wind Dir Waves Ship Positions

Love Boat

Last reported at 2014-Sep-02 10:33 UTC. Time now 2014-Sep-03 00:13 UTC.
Position N 47°37' E 007°35'.

Length 110 m; draft 3 m.

Type: Ship. MMSI: 205386190.

Date/timePositionNaut miles runAvg speedWind from/ knotsBaromVisibWave heightAir tempDewpointWater temp
2014-Sep-02 10:33N 47°37' E 007°35'2 1.7
2014-Sep-02 09:33N 47°35' E 007°36'0 0.0
2014-Sep-02 08:33N 47°35' E 007°36'0 0.0
2014-Sep-02 07:33N 47°35' E 007°36'0 0.0
2014-Sep-02 06:33N 47°35' E 007°36'0 0.0
2014-Sep-02 05:33N 47°35' E 007°36'0 0.0
2014-Sep-02 04:33N 47°35' E 007°36'0 0.0
2014-Sep-02 03:34N 47°35' E 007°36'0 0.0
2014-Sep-02 02:34N 47°35' E 007°36'0 0.0
2014-Sep-02 01:34N 47°35' E 007°36'0 0.0
2014-Sep-02 00:34N 47°35' E 007°36'0 0.0
2014-Sep-01 23:33N 47°35' E 007°36'0 0.0
2014-Sep-01 22:34N 47°35' E 007°36'0 0.0
2014-Sep-01 21:34N 47°35' E 007°36'0 0.0
2014-Sep-01 20:33N 47°35' E 007°36'0 0.0
2014-Sep-01 19:33N 47°35' E 007°36'0 0.0
2014-Sep-01 18:33N 47°35' E 007°36'0 0.0
2014-Sep-01 17:33N 47°35' E 007°36'0 0.0
2014-Sep-01 16:33N 47°35' E 007°36'0 0.0
2014-Sep-01 15:33N 47°35' E 007°36'0 0.0
2014-Sep-01 14:33N 47°35' E 007°36'0 0.0
2014-Sep-01 13:34N 47°35' E 007°36'0 0.0
2014-Sep-01 12:34N 47°35' E 007°36'0 0.0
2014-Sep-01 11:34N 47°35' E 007°36'0 0.0
2014-Sep-01 10:34N 47°35' E 007°36'0 0.0
2014-Sep-01 09:34N 47°35' E 007°36'0 0.0
2014-Sep-01 08:34N 47°35' E 007°36'0 0.0
2014-Sep-01 07:33N 47°35' E 007°36'0 0.0
2014-Sep-01 06:33N 47°35' E 007°36'0 0.0
2014-Sep-01 05:33N 47°35' E 007°36'0 0.0
2014-Sep-01 04:33N 47°35' E 007°36'0 0.0
2014-Sep-01 03:33N 47°35' E 007°36'0 0.0
2014-Sep-01 02:33N 47°35' E 007°36'0 0.0
2014-Sep-01 01:33N 47°35' E 007°36'0 0.0
2014-Sep-01 00:33N 47°35' E 007°36'0 0.0
2014-Aug-31 23:33N 47°35' E 007°36'0 0.0
2014-Aug-31 22:34N 47°35' E 007°36'0 0.0
2014-Aug-31 21:33N 47°35' E 007°36'0 0.0
2014-Aug-31 20:34N 47°35' E 007°36'0 0.0
2014-Aug-31 19:34N 47°35' E 007°36'0 0.2
2014-Aug-31 18:33N 47°35' E 007°36'0 0.0
2014-Aug-31 17:33N 47°35' E 007°36'2 1.6
2014-Aug-31 16:33N 47°37' E 007°35'4 3.8
2014-Aug-31 15:33N 47°40' E 007°31'64 3.0
2014-Aug-30 18:14N 48°41' E 007°55'4 5.6
2014-Aug-30 17:33N 48°45' E 007°58'6 6.1
2014-Aug-30 16:30N 48°48' E 008°06'3 3.0
2014-Aug-30 15:34N 48°51' E 008°07'4 3.9
2014-Aug-30 14:32N 48°55' E 008°09'4 3.9
2014-Aug-30 13:34N 48°58' E 008°13'4 4.2
2014-Aug-30 12:33N 49°01' E 008°18'4 4.5
2014-Aug-30 11:34N 49°05' E 008°20'4 4.1
2014-Aug-30 10:34N 49°09' E 008°22'4 4.3
2014-Aug-30 09:34N 49°13' E 008°23'4 4.3
2014-Aug-30 08:34N 49°16' E 008°27'3 3.1
2014-Aug-30 07:34N 49°20' E 008°27'6 4.8
2014-Aug-30 06:24N 49°25' E 008°30'106 3.8
2014-Aug-29 02:05N 50°54' E 006°59'16 3.5
2014-Aug-28 21:33N 51°09' E 006°49'3 3.5
2014-Aug-28 20:34N 51°11' E 006°45'3 2.5
2014-Aug-28 19:33N 51°13' E 006°46'4 4.0
2014-Aug-28 18:34N 51°17' E 006°42'36 3.5
2014-Aug-28 08:07N 51°49' E 006°16'20 4.2
2014-Aug-28 03:21N 51°53' E 005°44'5 5.9
2014-Aug-28 02:34N 51°54' E 005°37'6 6.0
2014-Aug-28 01:33N 51°53' E 005°27'6 6.0
2014-Aug-28 00:34N 51°48' E 005°22'5 4.9
2014-Aug-27 23:34N 51°49' E 005°14'6 5.6
2014-Aug-27 22:34N 51°50' E 005°05'6 6.3
2014-Aug-27 21:33N 51°50' E 004°55'7 6.5
2014-Aug-27 20:34N 51°47' E 004°45'7 7.0
2014-Aug-27 19:32N 51°42' E 004°36'12 5.8
2014-Aug-27 17:31N 51°39' E 004°18'6 6.0
2014-Aug-27 16:33N 51°34' E 004°14'7 6.9
2014-Aug-27 15:33N 51°27' E 004°14'0 0.5
2014-Aug-27 14:33N 51°26' E 004°14'7 6.0
2014-Aug-27 13:27N 51°20' E 004°18'7 7.3
2014-Aug-27 12:34N 51°15' E 004°23'1 0.6
2014-Aug-27 11:34N 51°15' E 004°24'0 0.0
2014-Aug-27 10:34N 51°15' E 004°24'0 0.0
2014-Aug-27 09:34N 51°15' E 004°24'0 0.0
2014-Aug-27 08:34N 51°15' E 004°24'0 0.0
2014-Aug-27 07:34N 51°15' E 004°24'0 0.0
2014-Aug-27 06:33N 51°15' E 004°24'0 0.0
2014-Aug-27 05:34N 51°15' E 004°24'0 0.0
2014-Aug-27 04:34N 51°15' E 004°24'0 0.0
2014-Aug-27 03:34N 51°15' E 004°24'0 0.0
2014-Aug-27 02:34N 51°15' E 004°24'0 0.0
2014-Aug-27 01:34N 51°15' E 004°24'0 0.5
2014-Aug-27 00:33N 51°15' E 004°24'0 0.4
2014-Aug-26 23:34N 51°15' E 004°24'0 0.0
2014-Aug-26 22:34N 51°15' E 004°24'0 0.0
2014-Aug-26 21:34N 51°15' E 004°24'0 0.0
2014-Aug-26 20:34N 51°15' E 004°24'0 0.0
2014-Aug-26 19:34N 51°15' E 004°24'0 0.0
2014-Aug-26 18:34N 51°15' E 004°24'0 0.0
2014-Aug-26 17:34N 51°15' E 004°24'0 0.0
2014-Aug-26 16:34N 51°15' E 004°24'1 1.1
2014-Aug-26 15:34N 51°14' E 004°24'3 2.8
2014-Aug-26 14:34N 51°15' E 004°20'7 7.0
2014-Aug-26 13:32N 51°21' E 004°14'7 7.5
2014-Aug-26 12:33N 51°24' E 004°03'7 6.9
2014-Aug-26 11:32N 51°21' E 003°53'3 2.8
2014-Aug-26 10:32N 51°20' E 003°49'8 7.5
2014-Aug-26 09:31N 51°12' E 003°48'4 3.8
2014-Aug-26 08:34N 51°09' E 003°48'0 0.0
2014-Aug-26 07:33N 51°09' E 003°48'0 0.0
2014-Aug-26 06:33N 51°09' E 003°48'0 0.0
2014-Aug-26 05:34N 51°09' E 003°48'0 0.0
2014-Aug-26 04:33N 51°09' E 003°48'0 0.1
2014-Aug-26 03:31N 51°09' E 003°48'0 0.0
2014-Aug-26 02:33N 51°09' E 003°48'0 0.0
2014-Aug-26 01:33N 51°09' E 003°48'0 0.0
2014-Aug-26 00:33N 51°09' E 003°48'0 0.0
2014-Aug-25 23:33N 51°09' E 003°48'0 0.0
2014-Aug-25 22:33N 51°09' E 003°48'0 0.0
2014-Aug-25 21:33N 51°09' E 003°48'0 0.0
2014-Aug-25 20:33N 51°09' E 003°48'0 0.1
2014-Aug-25 19:33N 51°09' E 003°48'0 0.0
2014-Aug-25 18:33N 51°09' E 003°48'0 0.0
2014-Aug-25 17:33N 51°09' E 003°48'0 0.0
2014-Aug-25 16:30N 51°09' E 003°48'0 0.0
2014-Aug-25 15:33N 51°09' E 003°48'0 0.0
2014-Aug-25 14:33N 51°09' E 003°48'0 0.0
2014-Aug-25 13:32N 51°09' E 003°48'0 0.0
2014-Aug-25 12:33N 51°09' E 003°48'0 0.0
2014-Aug-25 11:33N 51°09' E 003°48'0 0.0
2014-Aug-25 10:33N 51°09' E 003°48'0 0.0
2014-Aug-25 09:32N 51°09' E 003°48'0 0.0
2014-Aug-25 08:32N 51°09' E 003°48'0 0.0
2014-Aug-25 07:33N 51°09' E 003°48'0 0.0
2014-Aug-25 06:33N 51°09' E 003°48'0 0.4
2014-Aug-25 05:33N 51°09' E 003°47'0 0.0
2014-Aug-25 04:33N 51°09' E 003°47'0 0.0
2014-Aug-25 03:34N 51°09' E 003°47'0 0.0
2014-Aug-25 02:33N 51°09' E 003°47'0 0.0
2014-Aug-25 01:34N 51°09' E 003°47'0 0.0
2014-Aug-25 00:33N 51°09' E 003°47'0 0.0
2014-Aug-24 23:33N 51°09' E 003°47'0 0.0
2014-Aug-24 22:33N 51°09' E 003°47'0 0.0
2014-Aug-24 21:32N 51°09' E 003°47'0 0.0
2014-Aug-24 20:33N 51°09' E 003°47'1 0.8
2014-Aug-24 19:33N 51°10' E 003°47'6 5.6
2014-Aug-24 18:28N 51°15' E 003°50'5 5.1
2014-Aug-24 17:33N 51°20' E 003°49'5 4.5
2014-Aug-24 16:32N 51°22' E 003°55'6 6.1
2014-Aug-24 15:33N 51°27' E 004°01'6 5.7
2014-Aug-24 14:33N 51°33' E 003°59'9 4.4
2014-Aug-24 12:23N 51°40' E 004°10'10 4.8
2014-Aug-24 10:25N 51°41' E 004°25'5 6.3
2014-Aug-24 09:33N 51°42' E 004°33'6 6.1
2014-Aug-24 08:33N 51°44' E 004°43'6 5.8
2014-Aug-24 07:33N 51°48' E 004°50'6 6.4
2014-Aug-24 06:33N 51°49' E 005°00'7 7.0
2014-Aug-24 05:34N 51°49' E 005°11'7 6.8
2014-Aug-24 04:33N 51°49' E 005°22'7 7.1
2014-Aug-24 03:33N 51°53' E 005°31'11 7.6
2014-Aug-24 02:07N 51°52' E 005°49'  

Dump ship's entire track history